Time;durP1;ratioP1;P1;durP2;ratioP2;P2;SDS_P1;SDS_P2;PMS_P1;PMS_P2;Temp;Humidity;BMP_temperature;BMP_pressure;BME280_temperature;BME280_humidity;BME280_pressure;Samples;Min_cycle;Max_cycle;Signal;HPM_P1;HPM_P2
2021/12/31 00:00:12;;;;;;;;;;;;;;;15.43;100.00;98210.78;5074353;28;19928;-75
2021/12/31 00:02:40;;;;;;;;;;;;;;;15.59;100.00;98218.81;5074956;28;19931;-75
2021/12/31 00:05:07;;;;;;;;;;;;;;;15.45;100.00;98197.75;5058401;28;20382;-75
2021/12/31 00:07:34;;;;;;;;;;;;;;;15.19;100.00;98162.84;5075149;28;19924;-75
2021/12/31 00:10:02;;;;;;;;;;;;;;;15.10;100.00;98179.75;5074363;28;19975;-75
2021/12/31 00:12:31;;;;;;;;;;;;;;;15.30;100.00;98185.63;5093273;28;19924;-75
2021/12/31 00:14:58;;;;;;;;;;;;;;;15.32;100.00;98200.00;5094060;28;19931;-74
2021/12/31 00:17:25;;;;;;;;;;;;;;;15.47;100.00;98206.53;5076262;28;19959;-74
2021/12/31 00:20:26;;;;;;;;;;;;;;;15.35;100.00;98182.16;5076150;28;20038;-75
2021/12/31 00:23:05;;;;;;;;;;;;;;;15.36;100.00;98211.84;5091166;28;19970;-75
2021/12/31 00:25:36;;;;;;;;;;;;;;;15.28;100.00;98204.25;5094165;28;20363;-75
2021/12/31 00:28:04;;;;;;;;;;;;;;;15.37;100.00;98213.44;5076526;28;19924;-74
2021/12/31 00:30:32;;;;;;;;;;;;;;;15.16;100.00;98194.72;5075943;28;19932;-74
2021/12/31 00:33:01;;;;;;;;;;;;;;;15.28;100.00;98204.25;5094117;28;19947;-74
2021/12/31 00:35:29;;;;;;;;;;;;;;;15.30;100.00;98196.88;5076177;28;19931;-74
2021/12/31 00:37:56;;;;;;;;;;;;;;;15.46;100.00;98209.81;5076222;28;19924;-74
2021/12/31 00:40:23;;;;;;;;;;;;;;;15.17;100.00;98227.25;5093921;28;19924;-74
2021/12/31 00:42:50;;;;;;;;;;;;;;;15.20;100.00;98237.56;5058999;28;20031;-74
2021/12/31 00:45:18;;;;;;;;;;;;;;;15.46;100.00;98219.06;5094093;28;19947;-75
2021/12/31 00:47:45;;;;;;;;;;;;;;;15.47;100.00;98214.97;5093869;28;19967;-74
2021/12/31 00:50:13;;;;;;;;;;;;;;;15.56;100.00;98209.28;5093889;28;19924;-74
2021/12/31 00:52:42;;;;;;;;;;;;;;;15.44;100.00;98201.06;5075738;28;19932;-74
2021/12/31 00:55:10;;;;;;;;;;;;;;;15.44;100.00;98201.06;5075655;28;19931;-75
2021/12/31 00:57:40;;;;;;;;;;;;;;;15.30;100.00;98196.09;5058878;28;20011;-74
2021/12/31 01:00:08;;;;;;;;;;;;;;;15.20;100.00;98198.19;5075303;28;19959;-74
2021/12/31 01:02:39;;;;;;;;;;;;;;;15.30;100.00;98198.91;5034130;28;19967;-74
2021/12/31 01:05:06;;;;;;;;;;;;;;;15.30;100.00;98201.72;5073510;28;19924;-74
2021/12/31 01:07:34;;;;;;;;;;;;;;;15.27;100.00;98199.84;5073360;28;19924;-74
2021/12/31 01:10:02;;;;;;;;;;;;;;;15.27;100.00;98203.44;5073549;28;20015;-74
2021/12/31 01:12:29;;;;;;;;;;;;;;;15.56;100.00;98205.69;5055324;28;19925;-74
2021/12/31 01:15:04;;;;;;;;;;;;;;;15.53;100.00;98215.88;5056029;28;19925;-74
2021/12/31 01:20:12;;;;;;;;;;;;;;;15.62;100.00;98204.56;5073486;28;19925;-74
2021/12/31 01:22:43;;;;;;;;;;;;;;;15.57;100.00;98205.22;5077035;28;19929;-74
2021/12/31 01:25:10;;;;;;;;;;;;;;;15.65;100.00;98206.44;5059442;28;20360;-74
2021/12/31 01:27:42;;;;;;;;;;;;;;;15.43;100.00;98200.31;5059529;28;19928;-74
2021/12/31 01:30:13;;;;;;;;;;;;;;;15.34;100.00;98214.34;5042795;28;19931;-74
2021/12/31 01:32:46;;;;;;;;;;;;;;;15.46;100.00;98207.78;5077430;28;19968;-74
2021/12/31 01:35:15;;;;;;;;;;;;;;;15.27;100.00;98209.06;5075828;28;20692;-74
2021/12/31 01:37:44;;;;;;;;;;;;;;;15.32;100.00;98194.38;5077114;28;19946;-74
2021/12/31 01:40:12;;;;;;;;;;;;;;;15.23;100.00;98202.84;5077214;28;19951;-74
2021/12/31 01:42:39;;;;;;;;;;;;;;;15.28;100.00;98204.25;5058791;28;20001;-74
2021/12/31 01:45:12;;;;;;;;;;;;;;;15.41;100.00;98185.91;5077123;28;20374;-74
2021/12/31 01:48:22;;;;;;;;;;;;;;;15.27;100.00;98192.19;5077265;28;20315;-74
2021/12/31 01:50:33;;;;;;;;;;;;;;;15.27;100.00;98172.50;5074027;28;20014;-74
2021/12/31 01:53:01;;;;;;;;;;;;;;;15.44;100.00;98192.63;5076923;28;20015;-74
2021/12/31 01:55:30;;;;;;;;;;;;;;;15.32;100.00;98200.00;5076733;28;20267;-74
2021/12/31 01:57:58;;;;;;;;;;;;;;;15.01;100.00;98191.03;5076976;28;19925;-74
2021/12/31 02:00:25;;;;;;;;;;;;;;;15.43;100.00;98191.84;5058733;28;19924;-74
2021/12/31 02:02:52;;;;;;;;;;;;;;;15.52;100.00;98203.06;5058712;28;20303;-74
2021/12/31 02:05:21;;;;;;;;;;;;;;;15.33;100.00;98198.72;5076761;28;20347;-74
2021/12/31 02:07:48;;;;;;;;;;;;;;;15.48;100.00;98204.50;5058731;28;20347;-74
2021/12/31 02:10:17;;;;;;;;;;;;;;;15.45;100.00;98211.84;5076609;28;20258;-74
2021/12/31 02:12:46;;;;;;;;;;;;;;;15.35;100.00;98187.78;5076623;28;19925;-74
2021/12/31 02:15:14;;;;;;;;;;;;;;;15.56;100.00;98202.88;5058827;28;19931;-74
2021/12/31 02:17:41;;;;;;;;;;;;;;;15.45;100.00;98209.03;5058722;28;20380;-74
2021/12/31 02:20:09;;;;;;;;;;;;;;;15.47;100.00;98198.09;5041926;28;20287;-74
2021/12/31 02:22:38;;;;;;;;;;;;;;;15.66;100.00;98204.41;5066895;28;19928;-74
2021/12/31 02:25:07;;;;;;;;;;;;;;;15.67;100.00;98203.91;5078591;28;19924;-74
2021/12/31 02:27:38;;;;;;;;;;;;;;;15.65;100.00;98206.44;5096670;28;19924;-74
2021/12/31 02:30:06;;;;;;;;;;;;;;;15.59;100.00;98196.28;5078645;28;19947;-75
2021/12/31 02:32:36;;;;;;;;;;;;;;;15.67;100.00;98215.19;5078271;28;19950;-74
2021/12/31 02:35:05;;;;;;;;;;;;;;;15.60;100.00;98187.34;5078520;28;20363;-74
2021/12/31 02:37:32;;;;;;;;;;;;;;;15.79;100.00;98211.34;5078602;28;19928;-74
2021/12/31 02:40:03;;;;;;;;;;;;;;;15.79;100.00;98199.31;5061751;28;20360;-74
2021/12/31 02:42:31;;;;;;;;;;;;;;;15.65;100.00;98211.28;5096420;28;19967;-74
2021/12/31 02:44:58;;;;;;;;;;;;;;;15.70;100.00;98208.59;5096404;28;19931;-74
2021/12/31 02:47:30;;;;;;;;;;;;;;;15.72;100.00;98194.03;5096266;28;20023;-74
2021/12/31 02:49:57;;;;;;;;;;;;;;;15.68;100.00;98215.94;5061708;28;19947;-74
2021/12/31 02:52:24;;;;;;;;;;;;;;;15.63;100.00;98214.56;5096144;28;19930;-74
2021/12/31 02:54:53;;;;;;;;;;;;;;;15.69;100.00;98207.03;5096045;28;20015;-74
2021/12/31 02:57:22;;;;;;;;;;;;;;;15.61;100.00;98214.28;5096188;28;19928;-74
2021/12/31 02:59:49;;;;;;;;;;;;;;;15.63;100.00;98220.19;5095841;28;19931;-75
2021/12/31 03:02:25;;;;;;;;;;;;;;;15.52;100.00;98217.16;5095897;28;19995;-74
2021/12/31 03:04:52;;;;;;;;;;;;;;;15.36;100.00;98216.69;5077950;28;20030;-74
2021/12/31 03:07:20;;;;;;;;;;;;;;;15.35;100.00;98215.94;5095846;28;19946;-74
2021/12/31 03:09:52;;;;;;;;;;;;;;;15.38;100.00;98219.84;5095731;28;19930;-77
2021/12/31 03:12:19;;;;;;;;;;;;;;;15.21;100.00;98222.25;5077775;28;19924;-77
2021/12/31 03:14:47;;;;;;;;;;;;;;;15.23;100.00;98221.75;5061294;28;20018;-78
2021/12/31 03:17:14;;;;;;;;;;;;;;;15.15;100.00;98224.13;5095751;28;19924;-77
2021/12/31 03:19:43;;;;;;;;;;;;;;;15.14;100.00;98228.22;5075616;28;19929;-77
2021/12/31 03:22:11;;;;;;;;;;;;;;;15.14;100.00;98222.59;5061805;28;19931;-77
2021/12/31 03:24:38;;;;;;;;;;;;;;;15.28;100.00;98233.16;5095566;28;19969;-77
2021/12/31 03:27:08;;;;;;;;;;;;;;;15.09;100.00;98226.03;5095476;28;20293;-77
2021/12/31 03:29:35;;;;;;;;;;;;;;;15.45;100.00;98231.53;5077474;28;19931;-77
2021/12/31 03:32:02;;;;;;;;;;;;;;;15.22;100.00;98235.03;5077400;28;19935;-77
2021/12/31 03:34:29;;;;;;;;;;;;;;;15.29;100.00;98211.41;5095344;28;19924;-77
2021/12/31 03:36:56;;;;;;;;;;;;;;;15.29;100.00;98229.09;5095173;28;20019;-77
2021/12/31 03:39:23;;;;;;;;;;;;;;;15.26;100.00;98224.41;5095075;28;19959;-77
2021/12/31 03:41:50;;;;;;;;;;;;;;;15.33;100.00;98217.66;5060325;28;19982;-77
2021/12/31 03:44:21;;;;;;;;;;;;;;;15.31;100.00;98232.19;5076281;28;19924;-77
2021/12/31 03:46:48;;;;;;;;;;;;;;;15.32;100.00;98227.34;5077145;28;19930;-77
2021/12/31 03:49:15;;;;;;;;;;;;;;;15.35;100.00;98221.56;5094997;28;19924;-77
2021/12/31 03:51:42;;;;;;;;;;;;;;;15.50;100.00;98221.66;5090153;28;19944;-77
2021/12/31 03:54:09;;;;;;;;;;;;;;;15.50;100.00;98227.31;5093460;28;19924;-77
2021/12/31 03:56:37;;;;;;;;;;;;;;;15.57;100.00;98210.09;5095057;28;20001;-77
2021/12/31 03:59:04;;;;;;;;;;;;;;;15.42;100.00;98201.53;5076343;28;19924;-77
2021/12/31 04:01:31;;;;;;;;;;;;;;;15.57;100.00;98205.22;5075718;28;20018;-77
2021/12/31 04:03:59;;;;;;;;;;;;;;;15.59;100.00;98210.38;5094293;28;19955;-78
2021/12/31 04:06:26;;;;;;;;;;;;;;;15.58;100.00;98211.63;5094068;28;19930;-78
2021/12/31 04:08:53;;;;;;;;;;;;;;;15.57;100.00;98210.84;5093873;28;19924;-78
2021/12/31 04:11:20;;;;;;;;;;;;;;;15.69;100.00;98212.66;5075824;28;20294;-78
2021/12/31 04:13:47;;;;;;;;;;;;;;;15.61;100.00;98205.84;5094553;28;19943;-75
2021/12/31 04:16:15;;;;;;;;;;;;;;;15.75;100.00;98213.56;5076411;28;19931;-74
2021/12/31 04:18:42;;;;;;;;;;;;;;;15.58;100.00;98215.22;5076608;28;20256;-75
2021/12/31 04:21:09;;;;;;;;;;;;;;;15.52;100.00;98197.44;5076295;28;20263;-74
2021/12/31 04:23:48;;;;;;;;;;;;;;;15.66;100.00;98213.59;5076279;28;19998;-74
2021/12/31 04:26:15;;;;;;;;;;;;;;;15.75;100.00;98198.72;5094511;28;19956;-74
2021/12/31 04:28:43;;;;;;;;;;;;;;;15.62;100.00;98207.38;5094317;28;20298;-74
2021/12/31 04:31:10;;;;;;;;;;;;;;;15.58;100.00;98206.78;5094180;28;19966;-75
2021/12/31 04:33:37;;;;;;;;;;;;;;;15.54;100.00;98223.06;5094182;28;19977;-74
2021/12/31 04:36:05;;;;;;;;;;;;;;;15.34;100.00;98208.72;5059160;28;19931;-74
2021/12/31 04:38:32;;;;;;;;;;;;;;;15.43;100.00;98188.25;5076246;28;19960;-74
2021/12/31 04:40:59;;;;;;;;;;;;;;;15.58;100.00;98209.59;5094082;28;19924;-74
2021/12/31 04:43:26;;;;;;;;;;;;;;;15.44;100.00;98192.63;5076279;28;19931;-74
2021/12/31 04:45:53;;;;;;;;;;;;;;;15.55;100.00;98202.13;5093942;28;20030;-74
2021/12/31 04:48:20;;;;;;;;;;;;;;;15.57;100.00;98196.75;5093919;28;20018;-74
2021/12/31 04:50:48;;;;;;;;;;;;;;;15.42;100.00;98190.28;5075919;28;19928;-74
2021/12/31 04:53:16;;;;;;;;;;;;;;;15.65;100.00;98180.28;5076145;28;19947;-74
2021/12/31 04:55:43;;;;;;;;;;;;;;;15.63;100.00;98175.13;5093749;28;19943;-74
2021/12/31 04:58:11;;;;;;;;;;;;;;;15.51;100.00;98178.22;5076272;28;19925;-74
2021/12/31 05:00:39;;;;;;;;;;;;;;;15.47;100.00;98175.56;5093212;28;19924;-74
2021/12/31 05:03:09;;;;;;;;;;;;;;;15.51;100.00;98181.03;5075808;28;19974;-75
2021/12/31 05:05:37;;;;;;;;;;;;;;;15.45;100.00;98178.06;5075203;28;19924;-74
2021/12/31 05:08:04;;;;;;;;;;;;;;;15.43;100.00;98183.41;5075868;28;20275;-74
2021/12/31 05:10:32;;;;;;;;;;;;;;;15.34;100.00;98177.75;5093755;28;19924;-74
2021/12/31 05:13:00;;;;;;;;;;;;;;;15.43;100.00;98166.53;5075788;28;19930;-74
2021/12/31 05:15:32;;;;;;;;;;;;;;;15.79;100.00;98182.41;5093564;28;20014;-74
2021/12/31 05:17:59;;;;;;;;;;;;;;;15.62;100.00;98170.78;5093609;28;19924;-74
2021/12/31 05:20:28;;;;;;;;;;;;;;;15.51;100.00;98172.56;5093478;28;20080;-74
2021/12/31 05:22:57;;;;;;;;;;;;;;;15.40;100.00;98173.09;5058924;28;19947;-74
2021/12/31 05:25:24;;;;;;;;;;;;;;;15.58;100.00;98184.25;5093638;28;19924;-75
2021/12/31 05:27:54;;;;;;;;;;;;;;;15.49;100.00;98158.97;5075321;28;19958;-74
2021/12/31 05:30:22;;;;;;;;;;;;;;;15.45;100.00;98175.25;5075229;28;19924;-74
2021/12/31 05:32:49;;;;;;;;;;;;;;;15.61;100.00;98174.06;5093296;28;19931;-74
2021/12/31 05:35:16;;;;;;;;;;;;;;;15.62;100.00;98179.22;5093432;28;19931;-74
2021/12/31 05:37:43;;;;;;;;;;;;;;;15.70;100.00;98174.81;5075377;28;19925;-74
2021/12/31 05:40:13;;;;;;;;;;;;;;;15.70;100.00;98183.25;5075917;28;19924;-74
2021/12/31 05:42:40;;;;;;;;;;;;;;;15.66;100.00;98191.06;5089563;28;20302;-74
2021/12/31 05:45:09;;;;;;;;;;;;;;;15.72;100.00;98189.16;5073732;28;19931;-74
2021/12/31 05:47:37;;;;;;;;;;;;;;;15.51;100.00;98183.84;5054888;28;19925;-74
2021/12/31 05:50:08;;;;;;;;;;;;;;;15.41;100.00;98185.13;5055459;28;19960;-74
2021/12/31 05:52:35;;;;;;;;;;;;;;;15.30;100.00;98188.44;5073081;28;20371;-74
2021/12/31 05:55:07;;;;;;;;;;;;;;;15.51;100.00;98187.41;5073118;28;19925;-74
2021/12/31 05:57:34;;;;;;;;;;;;;;;15.46;100.00;98199.34;5072986;28;20041;-74
2021/12/31 06:00:04;;;;;;;;;;;;;;;15.38;100.00;98198.13;5054754;28;19928;-74
2021/12/31 06:02:32;;;;;;;;;;;;;;;15.21;100.00;98193.31;5053494;28;19924;-74
2021/12/31 06:04:58;;;;;;;;;;;;;;;15.56;100.00;98209.28;5093248;28;19924;-74
2021/12/31 06:07:25;;;;;;;;;;;;;;;15.46;100.00;98195.75;5094657;28;19924;-74
2021/12/31 06:09:53;;;;;;;;;;;;;;;15.42;100.00;98197.97;5097079;28;19952;-74
2021/12/31 06:12:20;;;;;;;;;;;;;;;15.40;100.00;98203.28;5078701;28;19924;-74
2021/12/31 06:14:54;;;;;;;;;;;;;;;15.34;100.00;98200.28;5096944;28;19999;-74
2021/12/31 06:17:26;;;;;;;;;;;;;;;15.46;100.00;98210.59;5078745;28;19931;-74
2021/12/31 06:19:54;;;;;;;;;;;;;;;15.27;100.00;98209.06;5062007;28;20547;-74
2021/12/31 06:22:21;;;;;;;;;;;;;;;15.45;100.00;98230.78;5078460;28;19931;-74
2021/12/31 06:24:49;;;;;;;;;;;;;;;15.51;100.00;98228.88;5078759;28;19924;-74
2021/12/31 06:27:18;;;;;;;;;;;;;;;15.54;100.00;98223.06;5096310;28;20447;-74
2021/12/31 06:29:47;;;;;;;;;;;;;;;15.25;100.00;98233.34;5096531;28;20323;-74
2021/12/31 06:32:17;;;;;;;;;;;;;;;15.42;100.00;98243.75;5078153;28;20031;-74
2021/12/31 06:34:44;;;;;;;;;;;;;;;15.36;100.00;98228.75;5096398;28;20290;-74
2021/12/31 06:37:11;;;;;;;;;;;;;;;15.53;100.00;98234.78;5078186;28;19959;-74
2021/12/31 06:39:41;;;;;;;;;;;;;;;15.59;100.00;98230.84;5078267;28;19924;-74
2021/12/31 06:42:08;;;;;;;;;;;;;;;15.58;100.00;98229.31;5096048;28;20299;-74
2021/12/31 06:44:36;;;;;;;;;;;;;;;15.67;100.00;98234.91;5061501;28;19930;-74
2021/12/31 06:47:03;;;;;;;;;;;;;;;15.56;100.00;98229.00;5095837;28;19969;-74
2021/12/31 06:49:30;;;;;;;;;;;;;;;15.46;100.00;98235.16;5077960;28;20023;-74
2021/12/31 06:51:57;;;;;;;;;;;;;;;15.58;100.00;98231.34;5095982;28;19924;-75
2021/12/31 06:54:26;;;;;;;;;;;;;;;15.56;100.00;98251.53;5076946;28;19979;-74
2021/12/31 06:56:53;;;;;;;;;;;;;;;15.74;100.00;98236.56;5095713;28;19966;-74
2021/12/31 06:59:20;;;;;;;;;;;;;;;15.52;100.00;98234.03;5077774;28;20043;-74
2021/12/31 07:01:48;;;;;;;;;;;;;;;15.44;100.00;98235.63;5074110;28;19924;-74
2021/12/31 07:04:15;;;;;;;;;;;;;;;15.56;100.00;98237.44;5075448;28;20405;-74
2021/12/31 07:06:44;;;;;;;;;;;;;;;15.43;100.00;98228.44;5075697;28;19935;-74
2021/12/31 07:09:11;;;;;;;;;;;;;;;15.59;100.00;98241.34;5075508;28;19924;-75
2021/12/31 07:11:38;;;;;;;;;;;;;;;15.51;100.00;98245.78;5075327;28;19978;-74
2021/12/31 07:14:05;;;;;;;;;;;;;;;15.46;100.00;98249.22;5074157;28;20356;-74
2021/12/31 07:16:33;;;;;;;;;;;;;;;15.44;100.00;98257.34;5072037;28;19963;-74
2021/12/31 07:19:00;;;;;;;;;;;;;;;15.24;100.00;98248.63;5054047;28;19931;-74
2021/12/31 07:21:27;;;;;;;;;;;;;;;15.76;100.00;98262.22;5054077;28;20011;-74
2021/12/31 07:23:56;;;;;;;;;;;;;;;15.49;100.00;98263.13;5053864;28;20275;-74
2021/12/31 07:26:23;;;;;;;;;;;;;;;15.48;100.00;98247.47;5055118;28;20011;-74
2021/12/31 07:28:50;;;;;;;;;;;;;;;15.52;100.00;98265.00;5054744;28;20378;-74
2021/12/31 07:31:20;;;;;;;;;;;;;;;15.51;100.00;98257.78;5055355;28;19970;-74
2021/12/31 07:33:47;;;;;;;;;;;;;;;15.49;100.00;98263.13;5054951;28;19924;-77
2021/12/31 07:36:15;;;;;;;;;;;;;;;15.63;100.00;98262.44;5054866;28;19924;-74
2021/12/31 07:38:48;;;;;;;;;;;;;;;15.85;100.00;98259.34;5054770;28;19932;-75
2021/12/31 07:41:16;;;;;;;;;;;;;;;15.47;100.00;98262.81;5053704;28;19925;-77
2021/12/31 07:43:43;;;;;;;;;;;;;;;15.63;100.00;98265.25;5036725;28;19925;-77
2021/12/31 07:46:13;;;;;;;;;;;;;;;15.42;100.00;98277.53;5041175;28;20288;-77
2021/12/31 07:48:40;;;;;;;;;;;;;;;15.56;100.00;98278.88;5051351;28;20419;-74
2021/12/31 07:51:07;;;;;;;;;;;;;;;15.69;100.00;98285.88;5052977;28;19925;-75
2021/12/31 07:53:34;;;;;;;;;;;;;;;15.39;100.00;98289.75;5066982;28;19928;-74
2021/12/31 07:56:02;;;;;;;;;;;;;;;15.62;100.00;98289.03;5074099;28;19932;-74
2021/12/31 07:58:30;;;;;;;;;;;;;;;15.43;100.00;98292.41;5073832;28;19932;-74
2021/12/31 08:00:57;;;;;;;;;;;;;;;15.37;100.00;98286.63;5075212;28;19947;-74
2021/12/31 08:03:24;;;;;;;;;;;;;;;15.44;100.00;98275.03;5057572;28;20346;-74
2021/12/31 08:05:56;;;;;;;;;;;;;;;15.38;100.00;98276.16;5059215;28;20004;-74
2021/12/31 08:08:23;;;;;;;;;;;;;;;15.27;100.00;98282.25;5057520;28;19924;-74
2021/12/31 08:10:50;;;;;;;;;;;;;;;15.30;100.00;98284.13;5075803;28;19924;-74
2021/12/31 08:13:22;;;;;;;;;;;;;;;15.29;100.00;98291.00;5093911;28;19924;-74
2021/12/31 08:15:49;;;;;;;;;;;;;;;15.47;100.00;98284.56;5070951;28;19925;-74
2021/12/31 08:18:16;;;;;;;;;;;;;;;15.46;100.00;98295.06;5061415;28;19924;-74
2021/12/31 08:20:43;;;;;;;;;;;;;;;15.52;100.00;98269.84;5073584;28;19924;-75
2021/12/31 08:23:12;;;;;;;;;;;;;;;15.45;100.00;98287.84;5094241;28;19924;-72
2021/12/31 08:25:39;;;;;;;;;;;;;;;15.47;100.00;98290.19;5094263;28;19931;-74
2021/12/31 08:28:10;;;;;;;;;;;;;;;15.47;100.00;98307.88;5060284;28;20413;-74
2021/12/31 08:30:39;;;;;;;;;;;;;;;15.61;100.00;98314.84;5093990;28;19924;-74
2021/12/31 08:33:07;;;;;;;;;;;;;;;15.63;100.00;98303.91;5075930;28;19928;-74
2021/12/31 08:35:35;;;;;;;;;;;;;;;15.48;100.00;98292.53;5053029;28;19924;-74
2021/12/31 08:38:03;;;;;;;;;;;;;;;15.50;100.00;98292.84;5088500;28;19932;-74
2021/12/31 08:40:30;;;;;;;;;;;;;;;15.50;100.00;98301.28;5078801;28;20287;-74
2021/12/31 08:42:58;;;;;;;;;;;;;;;15.42;100.00;98294.44;5078218;28;20340;-74
2021/12/31 08:45:29;;;;;;;;;;;;;;;15.33;100.00;98290.81;5070821;28;20019;-74
2021/12/31 08:47:57;;;;;;;;;;;;;;;15.35;100.00;98306.00;5076398;28;19932;-78
2021/12/31 08:50:25;;;;;;;;;;;;;;;15.24;100.00;98300.06;5077942;28;19939;-72
2021/12/31 08:52:52;;;;;;;;;;;;;;;15.00;100.00;98307.63;5073080;28;19929;-72
2021/12/31 08:55:20;;;;;;;;;;;;;;;14.95;100.00;98316.69;5069806;28;19970;-72
2021/12/31 08:57:48;;;;;;;;;;;;;;;15.23;100.00;98309.78;5060355;28;21135;-73
2021/12/31 09:00:18;;;;;;;;;;;;;;;15.15;100.00;98313.38;5082949;28;19932;-73
2021/12/31 09:02:48;;;;;;;;;;;;;;;15.38;100.00;98310.72;5077307;28;20420;-74
2021/12/31 09:05:16;;;;;;;;;;;;;;;15.15;100.00;98313.38;5066229;28;20294;-74
2021/12/31 09:08:10;;;;;;;;;;;;;;;15.14;100.00;98318.25;5081808;28;19924;-74
2021/12/31 09:10:38;;;;;;;;;;;;;;;15.05;100.00;98321.06;5056263;28;19981;-74
2021/12/31 09:13:05;;;;;;;;;;;;;;;15.19;100.00;98328.84;5080664;28;20416;-74
2021/12/31 09:15:32;;;;;;;;;;;;;;;15.08;100.00;98337.00;5078917;28;20387;-74
2021/12/31 09:18:02;;;;;;;;;;;;;;;15.10;100.00;98345.75;5077956;28;19944;-73
2021/12/31 09:20:30;;;;;;;;;;;;;;;14.98;100.00;98348.75;5072031;28;20418;-74
2021/12/31 09:22:57;;;;;;;;;;;;;;;15.05;100.00;98354.03;5073439;28;19924;-75
2021/12/31 09:25:24;;;;;;;;;;;;;;;14.90;100.00;98345.47;5062799;28;19928;-75
2021/12/31 09:27:51;;;;;;;;;;;;;;;15.02;100.00;98338.91;5066815;28;19931;-74
2021/12/31 09:30:19;;;;;;;;;;;;;;;14.82;100.00;98357.47;5078460;28;19939;-76
2021/12/31 09:32:45;;;;;;;;;;;;;;;14.95;100.00;98355.31;5078208;28;19935;-77
2021/12/31 09:35:13;;;;;;;;;;;;;;;15.09;100.00;98354.66;5091874;28;19928;-77
2021/12/31 09:37:40;;;;;;;;;;;;;;;15.21;100.00;98357.31;5039842;28;20279;-78
2021/12/31 09:40:08;;;;;;;;;;;;;;;15.08;100.00;98348.25;5058562;28;19925;-77
2021/12/31 09:42:36;;;;;;;;;;;;;;;15.26;100.00;98359.50;5078255;28;19928;-78
2021/12/31 09:45:03;;;;;;;;;;;;;;;15.07;100.00;98357.94;5077082;28;19924;-77
2021/12/31 09:47:30;;;;;;;;;;;;;;;14.97;100.00;98356.41;5059186;28;19931;-78
2021/12/31 09:49:57;;;;;;;;;;;;;;;15.13;100.00;98369.38;5073581;28;19924;-77
2021/12/31 09:52:25;;;;;;;;;;;;;;;14.81;100.00;98367.97;5094689;28;19924;-76
2021/12/31 09:54:52;;;;;;;;;;;;;;;15.11;100.00;98389.53;5094294;28;20018;-77
2021/12/31 09:57:20;;;;;;;;;;;;;;;15.29;100.00;98374.66;5070655;28;19970;-75
2021/12/31 09:59:48;;;;;;;;;;;;;;;15.10;100.00;98390.75;5081678;28;19924;-77
2021/12/31 10:02:27;;;;;;;;;;;;;;;15.06;100.00;98392.97;5081641;28;19924;-77
2021/12/31 10:04:58;;;;;;;;;;;;;;;14.89;100.00;98402.94;5096780;28;19932;-77
2021/12/31 10:07:29;;;;;;;;;;;;;;;14.94;100.00;98405.16;5069573;28;19924;-77
2021/12/31 10:10:03;;;;;;;;;;;;;;;15.17;100.00;98410.16;5061042;28;20368;-77
2021/12/31 10:12:48;;;;;;;;;;;;;;;14.94;100.00;98387.47;5094047;28;19931;-74
2021/12/31 10:15:17;;;;;;;;;;;;;;;14.89;100.00;98411.38;5096543;28;19928;-77
2021/12/31 10:17:44;;;;;;;;;;;;;;;14.79;100.00;98395.78;5092161;28;19931;-77
2021/12/31 10:20:12;;;;;;;;;;;;;;;14.72;100.00;98398.91;5076830;28;20011;-78
2021/12/31 10:22:44;;;;;;;;;;;;;;;14.77;100.00;98389.81;5077858;28;19950;-77
2021/12/31 10:25:17;;;;;;;;;;;;;;;14.83;100.00;98398.44;5076073;28;20355;-77
2021/12/31 10:27:45;;;;;;;;;;;;;;;14.85;100.00;98410.78;5071652;28;19924;-77
2021/12/31 10:30:12;;;;;;;;;;;;;;;14.89;100.00;98419.81;5089626;28;19928;-77
2021/12/31 10:32:42;;;;;;;;;;;;;;;14.94;100.00;98422.03;5088367;28;20009;-77
2021/12/31 10:35:11;;;;;;;;;;;;;;;14.79;100.00;98412.63;5095123;28;20065;-77
2021/12/31 10:37:56;;;;;;;;;;;;;;;14.79;100.00;98421.06;5058167;28;19925;-77
2021/12/31 10:40:29;;;;;;;;;;;;;;;14.57;100.00;98397.16;5041697;28;20391;-77
2021/12/31 10:43:09;;;;;;;;;;;;;;;14.85;100.00;98418.41;5082840;28;19928;-78
2021/12/31 10:45:39;;;;;;;;;;;;;;;15.16;100.00;98411.38;5087311;28;19924;-78
2021/12/31 10:48:09;;;;;;;;;;;;;;;15.14;100.00;98418.75;5057755;28;19931;-78
2021/12/31 10:50:37;;;;;;;;;;;;;;;15.10;100.00;98402.00;5041289;28;20287;-76
2021/12/31 10:53:12;;;;;;;;;;;;;;;15.15;100.00;98423.13;5074491;28;19924;-78
2021/12/31 10:55:41;;;;;;;;;;;;;;;15.30;100.00;98415.59;5040332;28;20264;-77
2021/12/31 10:58:12;;;;;;;;;;;;;;;14.77;100.00;98423.56;5074644;28;19925;-78
2021/12/31 11:00:40;;;;;;;;;;;;;;;15.13;100.00;98429.22;5077498;28;19924;-77
2021/12/31 11:03:07;;;;;;;;;;;;;;;15.08;100.00;98426.25;5083950;28;19924;-78
2021/12/31 11:05:35;;;;;;;;;;;;;;;15.03;100.00;98436.09;5073942;28;19928;-78
2021/12/31 11:08:04;;;;;;;;;;;;;;;14.66;100.00;98451.34;5080122;28;19924;-78
2021/12/31 11:10:39;;;;;;;;;;;;;;;14.90;100.00;98463.59;5078207;28;20435;-78
2021/12/31 11:17:53;;;;;;;;;;;;;;;15.12;100.00;98461.41;5013158;28;19932;-78
2021/12/31 11:20:23;;;;;;;;;;;;;;;15.40;100.00;98482.72;4999729;28;19925;-78
2021/12/31 11:22:54;;;;;;;;;;;;;;;15.47;100.00;98461.91;4995225;28;19925;-78
2021/12/31 11:25:57;;;;;;;;;;;;;;;15.36;100.00;98475.63;5023780;28;19925;-78
2021/12/31 11:28:26;;;;;;;;;;;;;;;15.35;100.00;98466.44;5016145;28;20028;-78
2021/12/31 11:30:56;;;;;;;;;;;;;;;15.10;100.00;98475.16;5027545;28;19925;-79
2021/12/31 11:33:28;;;;;;;;;;;;;;;14.88;100.00;98449.22;5016982;28;19934;-79
2021/12/31 11:35:59;;;;;;;;;;;;;;;15.11;100.00;98484.41;5013151;28;19953;-78
2021/12/31 11:39:32;;;;;;;;;;;;;;;14.98;100.00;98462.03;4934383;29;20001;-78
2021/12/31 11:42:11;;;;;;;;;;;;;;;14.73;100.00;98470.75;4970152;28;20270;-78
2021/12/31 11:45:12;;;;;;;;;;;;;;;14.85;100.00;98481.09;4912866;29;19941;-79
2021/12/31 11:47:41;;;;;;;;;;;;;;;14.72;100.00;98493.72;4954731;28;19966;-79
2021/12/31 11:50:40;;;;;;;;;;;;;;;14.68;100.00;98493.84;4946540;28;19934;-78
2021/12/31 11:53:29;;;;;;;;;;;;;;;14.87;100.00;98495.47;4966403;28;19933;-78
2021/12/31 11:55:56;;;;;;;;;;;;;;;14.79;100.00;98488.56;5044617;28;20412;-78
2021/12/31 11:58:38;;;;;;;;;;;;;;;14.74;100.00;98483.56;5016176;28;19929;-79
2021/12/31 12:01:24;;;;;;;;;;;;;;;14.73;100.00;98478.38;5043886;28;20336;-79
2021/12/31 12:04:11;;;;;;;;;;;;;;;14.71;100.00;98470.41;5020838;28;19925;-79
2021/12/31 12:08:22;;;;;;;;;;;;;;;14.87;100.00;98497.50;5027864;28;19932;-79
2021/12/31 12:10:50;;;;;;;;;;;;;;;14.66;100.00;98499.13;5031233;28;19965;-79
2021/12/31 12:13:46;;;;;;;;;;;;;;;14.78;100.00;98492.66;5005960;28;19967;-79
2021/12/31 12:16:32;;;;;;;;;;;;;;;14.66;100.00;98496.34;5070149;28;19939;-79
2021/12/31 12:19:01;;;;;;;;;;;;;;;14.65;100.00;98488.38;5076680;28;20353;-79
2021/12/31 12:21:32;;;;;;;;;;;;;;;14.65;100.00;98455.41;5065709;28;19959;-79
2021/12/31 12:23:59;;;;;;;;;;;;;;;14.65;100.00;98483.53;5103535;28;19925;-80
2021/12/31 12:26:27;;;;;;;;;;;;;;;14.67;100.00;98494.31;5090935;28;20351;-80
2021/12/31 12:28:54;;;;;;;;;;;;;;;14.43;100.00;98494.09;5095654;28;19924;-80
2021/12/31 12:31:24;;;;;;;;;;;;;;;14.37;100.00;98498.75;5094131;28;19931;-78
2021/12/31 12:34:22;;;;;;;;;;;;;;;14.48;100.00;98479.41;5071704;28;19924;-78
2021/12/31 12:36:53;;;;;;;;;;;;;;;14.39;100.00;98482.19;5076299;28;19950;-78
2021/12/31 12:39:21;;;;;;;;;;;;;;;14.26;100.00;98489.94;5040048;28;19946;-78
2021/12/31 12:41:52;;;;;;;;;;;;;;;14.39;100.00;98482.19;5086036;28;19924;-78
2021/12/31 12:44:31;;;;;;;;;;;;;;;14.19;100.00;98476.16;5093603;28;19977;-78
2021/12/31 12:46:59;;;;;;;;;;;;;;;14.14;100.00;98460.69;5094237;28;20012;-77
2021/12/31 12:49:49;;;;;;;;;;;;;;;14.43;100.00;98488.47;5091115;28;20016;-77
2021/12/31 12:52:16;;;;;;;;;;;;;;;14.33;100.00;98472.81;5084453;28;19924;-78
2021/12/31 12:54:44;;;;;;;;;;;;;;;14.46;100.00;98477.06;5104559;28;20394;-77
2021/12/31 12:57:11;;;;;;;;;;;;;;;14.27;100.00;98485.88;5106807;28;19975;-78